METAR Data
IDs: Format: Raw Decoded Include TAF

Data at: 1523 UTC 27 Nov 2021

EHLE 271455Z AUTO 20011KT 170V230 9999 DZ FEW010 BKN026 OVC031 03/02 Q0989 TEMPO 6000 BKN010